KSUS/SUS METAR and TAF weather

Enter ICAO airport designator
Station Type Date Time Source
KSUS METAR 2020/01/17 13:54 UTC NOAA

KSUS 171354Z 09009KT 10SM OVC055 M02/M07 A3059 RMK AO2 SLP368 T10221067


Station Type Date Time Source
KSUS Decoded METAR 2020/01/17 13:54 UTC NOAA

SPIRIT OF ST. LOUIS AIRPORT , MO, United States (KSUS) 38-39N 090-39W 141M
Jan 17, 2020 - 08:54 AM EST / 2020.01.17 1354 UTC
Wind: from the E (090 degrees) at 10 MPH (9 KT):0
Visibility: 10 mile(s):0
Sky conditions: overcast
Temperature: 28.0 F (-2.2 C)
Windchill: 19 F (-7 C):1
Dew Point: 19.9 F (-6.7 C)
Relative Humidity: 71%
Pressure (altimeter): 30.59 in. Hg (1035 hPa)
ob: KSUS 171354Z 09009KT 10SM OVC055 M02/M07 A3059 RMK AO2 SLP368 T10221067
cycle: 14

Station Type Date Time Source
KSUS TAF 2020/01/17 12:27 UTC NOAA

TAF KSUS 171125Z 1712/1812 06008KT P6SM OVC150
FM171500 11011G17KT 5SM -SN OVC050
FM171900 12012G18KT 4SM -PL OVC030
FM172100 12014G20KT 3SM -FZRA BR OVC020
FM180000 14017KT 3SM -FZRA BR OVC009
FM180300 15016G23KT 2SM -RA BR OVC006
FM181100 22014G23KT P6SM OVC007

Example: see airport list